Terminal Aerodrome Forecast
Issued by NWS Cleveland, OH

Home | Current Version | Previous Version | Graphics & Text | Print | Product List | Glossary On
Versions: 1 2 3 4 5 6 7 8 9 10 11 12 13 14 15 16 17 18 19 20 21 22 23 24 25 26 27 28 29 30 31 32 33 34 35 36 37 38 39 40 41
000
FTUS41 KCLE 030500
TAFCLE
TAF
KCLE 030529Z 0306/0412 16005KT P6SM BKN150 OVC200
     FM031500 14010KT 5SM -SN OVC040
     FM031630 15010KT 3SM -FZRASNPL BR SCT015 OVC040
     FM031900 18015KT 2SM -RA BR OVC009 WS020/23045KT
     FM040100 24015G25KT 6SM BR OVC006
     FM041100 28010KT P6SM OVC015=

USA.gov is the U.S. government's official web portal to all federal, state and local government web resources and services.